createdAt,value
2022-10-03T00:04:43.608Z,17.30
2022-10-03T00:19:59.977Z,17.40
2022-10-03T00:35:15.714Z,17.20
2022-10-03T00:50:44.379Z,17.30
2022-10-03T01:06:07.454Z,17.20
2022-10-03T01:21:20.411Z,17.20
2022-10-03T01:36:33.355Z,17.20
2022-10-03T01:51:46.590Z,16.90
2022-10-03T02:07:00.677Z,17.10
2022-10-03T02:22:15.075Z,17.20
2022-10-03T02:37:48.374Z,17.00
2022-10-03T02:53:28.107Z,17.10
2022-10-03T03:09:09.501Z,17.20
2022-10-03T03:24:36.087Z,17.10
2022-10-03T03:39:58.375Z,17.10
2022-10-03T03:55:27.351Z,16.90
2022-10-03T04:10:43.327Z,17.00
2022-10-03T04:26:08.968Z,16.90
2022-10-03T04:41:23.349Z,16.90
2022-10-03T04:56:45.211Z,16.70
2022-10-03T05:12:01.026Z,16.80
2022-10-03T05:27:13.505Z,16.80
2022-10-03T05:42:40.408Z,16.80
2022-10-03T05:58:11.025Z,16.80
2022-10-03T06:13:22.651Z,16.70
2022-10-03T06:28:57.123Z,16.60
2022-10-03T06:44:16.402Z,16.60
2022-10-03T07:00:01.206Z,16.40
2022-10-03T07:16:04.740Z,16.40
2022-10-03T07:31:10.064Z,16.50
2022-10-03T07:46:43.267Z,16.50
2022-10-03T08:02:01.717Z,16.70
2022-10-03T08:17:34.487Z,16.70
2022-10-03T08:33:01.317Z,16.70
2022-10-03T08:48:45.207Z,17.00
2022-10-03T09:04:39.269Z,16.90
2022-10-03T09:20:09.254Z,17.10
2022-10-03T09:35:54.125Z,17.10
2022-10-03T09:51:22.484Z,17.20
2022-10-03T10:06:42.794Z,17.30
2022-10-03T10:22:19.553Z,17.20
2022-10-03T10:37:55.374Z,17.60
2022-10-03T10:53:40.887Z,17.40
2022-10-03T11:09:22.954Z,17.70
2022-10-03T11:24:59.710Z,17.80
2022-10-03T11:40:28.658Z,17.90
2022-10-03T11:55:35.847Z,18.20
2022-10-03T12:10:51.215Z,18.10
2022-10-03T12:25:58.275Z,18.30
2022-10-03T12:41:21.187Z,18.70
2022-10-03T12:56:37.734Z,19.00
2022-10-03T13:11:55.696Z,19.10
2022-10-03T13:27:07.657Z,18.90
2022-10-03T13:42:19.265Z,18.70
2022-10-03T13:57:29.237Z,19.40
2022-10-03T14:12:56.282Z,18.90
2022-10-03T14:28:09.024Z,21.10
2022-10-03T14:43:32.880Z,22.70
2022-10-03T14:58:44.957Z,23.70
2022-10-03T15:13:56.179Z,23.50
2022-10-03T15:29:03.868Z,22.40
2022-10-03T15:44:19.605Z,22.40
2022-10-03T15:59:28.300Z,21.40
2022-10-03T16:14:41.156Z,20.80
2022-10-03T16:29:54.672Z,20.30
2022-10-03T16:45:02.000Z,19.80
2022-10-03T17:00:14.103Z,19.50
2022-10-03T17:15:22.653Z,19.20
2022-10-03T17:30:33.744Z,18.90
2022-10-03T17:45:44.804Z,18.60
2022-10-03T18:01:07.668Z,18.40
2022-10-03T18:16:21.882Z,18.50
2022-10-03T18:31:26.700Z,18.30
2022-10-03T18:46:36.746Z,18.30
2022-10-03T19:01:54.346Z,18.10
2022-10-03T19:17:15.304Z,18.10
2022-10-03T19:32:25.352Z,18.10
2022-10-03T19:47:34.437Z,18.00
2022-10-03T20:02:39.087Z,17.90
2022-10-03T20:17:43.933Z,17.90
2022-10-03T20:32:50.035Z,17.90
2022-10-03T20:48:01.109Z,17.80
2022-10-03T21:03:12.782Z,17.70
2022-10-03T21:18:22.434Z,17.50
2022-10-03T21:33:31.824Z,17.40
2022-10-03T21:48:46.506Z,17.30
2022-10-03T22:03:58.958Z,17.40
2022-10-03T22:19:17.771Z,17.30
2022-10-03T22:34:34.072Z,17.30
2022-10-03T22:49:41.299Z,17.00
2022-10-03T23:21:10.116Z,16.90
2022-10-03T23:36:17.895Z,17.00
2022-10-03T23:51:25.483Z,16.80
